Forest, Virginia
Current Conditions -  °F | °C
As of 5:54 PM on Thursday 27 Nov 2014 (Local Time) from KLYH Reporting Station
Broken Clouds Broken Clouds  
Wind Chill: 32°   Ceiling: 4900
Heat Index: 37°   Visibility: NA
Dew Point: 22°   Wind: 7mph
Humidity: 54%   Direction: 300°WNW
Pressure: 30.16"   Gusts: NA
Location:  37.36°N, 79.29°W
Report Text: KLYH 272254Z 30006KT BKN049 03/M06 A3016 RMK AO2 SLP220 T00281056 $
Loading
Personal Weather Stations






























Interactive Weather Map New forecast layout! Learn more

10-Day Weather Forecast

Advertisements
Track Severe Weather on mobile